sensor_id;sensor_type;location;lat;lon;timestamp;P1;durP1;ratioP1;P2;durP2;ratioP2
47349;SDS011;33088;51.982;5.872;2023-02-02T00:01:22;30.25;;;5.70;;
47349;SDS011;33088;51.982;5.872;2023-02-02T00:03:48;18.02;;;4.30;;
47349;SDS011;33088;51.982;5.872;2023-02-02T00:06:17;18.23;;;4.82;;
47349;SDS011;33088;51.982;5.872;2023-02-02T00:08:44;20.15;;;4.20;;
47349;SDS011;33088;51.982;5.872;2023-02-02T00:11:10;18.48;;;4.53;;
47349;SDS011;33088;51.982;5.872;2023-02-02T00:13:36;27.95;;;5.63;;
47349;SDS011;33088;51.982;5.872;2023-02-02T00:18:51;32.03;;;5.40;;
47349;SDS011;33088;51.982;5.872;2023-02-02T00:21:17;24.80;;;5.57;;
47349;SDS011;33088;51.982;5.872;2023-02-02T00:23:42;32.80;;;7.40;;
47349;SDS011;33088;51.982;5.872;2023-02-02T00:26:08;29.80;;;6.50;;
47349;SDS011;33088;51.982;5.872;2023-02-02T00:28:34;29.25;;;6.18;;
47349;SDS011;33088;51.982;5.872;2023-02-02T00:31:00;36.63;;;6.30;;
47349;SDS011;33088;51.982;5.872;2023-02-02T00:33:26;25.60;;;4.78;;
47349;SDS011;33088;51.982;5.872;2023-02-02T00:35:51;31.70;;;5.45;;
47349;SDS011;33088;51.982;5.872;2023-02-02T00:38:20;23.15;;;4.85;;
47349;SDS011;33088;51.982;5.872;2023-02-02T00:40:45;22.15;;;5.30;;
47349;SDS011;33088;51.982;5.872;2023-02-02T00:43:11;30.60;;;5.50;;
47349;SDS011;33088;51.982;5.872;2023-02-02T00:45:37;26.20;;;5.25;;
47349;SDS011;33088;51.982;5.872;2023-02-02T00:48:03;38.50;;;6.43;;
47349;SDS011;33088;51.982;5.872;2023-02-02T00:50:29;24.92;;;5.60;;
47349;SDS011;33088;51.982;5.872;2023-02-02T00:52:55;24.95;;;5.32;;
47349;SDS011;33088;51.982;5.872;2023-02-02T00:55:23;30.67;;;5.38;;
47349;SDS011;33088;51.982;5.872;2023-02-02T00:57:49;28.38;;;6.38;;
47349;SDS011;33088;51.982;5.872;2023-02-02T01:00:16;22.42;;;5.22;;
47349;SDS011;33088;51.982;5.872;2023-02-02T01:02:45;19.88;;;4.60;;
47349;SDS011;33088;51.982;5.872;2023-02-02T01:05:11;34.75;;;5.88;;
47349;SDS011;33088;51.982;5.872;2023-02-02T01:07:37;31.20;;;5.30;;
47349;SDS011;33088;51.982;5.872;2023-02-02T01:10:04;25.92;;;4.25;;
47349;SDS011;33088;51.982;5.872;2023-02-02T01:12:33;37.08;;;6.85;;
47349;SDS011;33088;51.982;5.872;2023-02-02T01:14:59;21.35;;;5.32;;
47349;SDS011;33088;51.982;5.872;2023-02-02T01:17:26;29.52;;;5.38;;
47349;SDS011;33088;51.982;5.872;2023-02-02T01:19:51;23.77;;;4.65;;
47349;SDS011;33088;51.982;5.872;2023-02-02T01:22:17;24.52;;;4.68;;
47349;SDS011;33088;51.982;5.872;2023-02-02T01:24:43;23.98;;;4.38;;
47349;SDS011;33088;51.982;5.872;2023-02-02T01:27:09;31.33;;;6.82;;
47349;SDS011;33088;51.982;5.872;2023-02-02T01:29:34;21.02;;;5.07;;
47349;SDS011;33088;51.982;5.872;2023-02-02T01:32:00;27.77;;;6.97;;
47349;SDS011;33088;51.982;5.872;2023-02-02T01:34:25;28.63;;;5.93;;
47349;SDS011;33088;51.982;5.872;2023-02-02T01:36:51;16.90;;;4.32;;
47349;SDS011;33088;51.982;5.872;2023-02-02T01:39:18;27.17;;;4.80;;
47349;SDS011;33088;51.982;5.872;2023-02-02T01:41:43;20.05;;;4.47;;
47349;SDS011;33088;51.982;5.872;2023-02-02T01:47:12;23.67;;;4.80;;
47349;SDS011;33088;51.982;5.872;2023-02-02T01:49:39;20.10;;;5.03;;
47349;SDS011;33088;51.982;5.872;2023-02-02T01:52:06;20.83;;;5.35;;
47349;SDS011;33088;51.982;5.872;2023-02-02T01:54:35;30.15;;;5.53;;
47349;SDS011;33088;51.982;5.872;2023-02-02T01:57:09;29.90;;;5.72;;
47349;SDS011;33088;51.982;5.872;2023-02-02T01:59:40;24.63;;;5.30;;
47349;SDS011;33088;51.982;5.872;2023-02-02T02:02:06;26.95;;;4.85;;
47349;SDS011;33088;51.982;5.872;2023-02-02T02:04:32;16.90;;;4.55;;
47349;SDS011;33088;51.982;5.872;2023-02-02T02:06:59;26.27;;;4.57;;
47349;SDS011;33088;51.982;5.872;2023-02-02T02:09:27;24.70;;;4.63;;
47349;SDS011;33088;51.982;5.872;2023-02-02T02:11:54;25.40;;;4.45;;
47349;SDS011;33088;51.982;5.872;2023-02-02T02:14:20;14.75;;;5.28;;
47349;SDS011;33088;51.982;5.872;2023-02-02T02:26:42;12.27;;;2.53;;
47349;SDS011;33088;51.982;5.872;2023-02-02T02:40:29;15.82;;;2.55;;
47349;SDS011;33088;51.982;5.872;2023-02-02T02:43:03;14.90;;;3.15;;
47349;SDS011;33088;51.982;5.872;2023-02-02T02:45:34;8.65;;;2.58;;
47349;SDS011;33088;51.982;5.872;2023-02-02T02:48:02;16.27;;;2.95;;
47349;SDS011;33088;51.982;5.872;2023-02-02T02:50:28;13.13;;;3.45;;
47349;SDS011;33088;51.982;5.872;2023-02-02T02:53:01;13.25;;;3.78;;
47349;SDS011;33088;51.982;5.872;2023-02-02T02:55:32;13.10;;;4.03;;
47349;SDS011;33088;51.982;5.872;2023-02-02T02:58:12;13.20;;;4.43;;
47349;SDS011;33088;51.982;5.872;2023-02-02T03:01:06;11.65;;;4.88;;
47349;SDS011;33088;51.982;5.872;2023-02-02T03:03:45;20.00;;;4.70;;
47349;SDS011;33088;51.982;5.872;2023-02-02T03:06:35;18.05;;;4.85;;
47349;SDS011;33088;51.982;5.872;2023-02-02T03:09:11;11.38;;;4.25;;
47349;SDS011;33088;51.982;5.872;2023-02-02T03:11:42;16.70;;;4.32;;
47349;SDS011;33088;51.982;5.872;2023-02-02T03:14:08;21.75;;;6.35;;
47349;SDS011;33088;51.982;5.872;2023-02-02T03:16:37;22.17;;;5.10;;
47349;SDS011;33088;51.982;5.872;2023-02-02T03:19:03;18.67;;;5.25;;
47349;SDS011;33088;51.982;5.872;2023-02-02T03:21:31;20.25;;;4.95;;
47349;SDS011;33088;51.982;5.872;2023-02-02T03:23:58;19.70;;;5.00;;
47349;SDS011;33088;51.982;5.872;2023-02-02T03:26:24;23.00;;;4.78;;
47349;SDS011;33088;51.982;5.872;2023-02-02T03:28:50;24.00;;;6.53;;
47349;SDS011;33088;51.982;5.872;2023-02-02T03:31:16;15.70;;;4.60;;
47349;SDS011;33088;51.982;5.872;2023-02-02T03:33:42;21.77;;;4.85;;
47349;SDS011;33088;51.982;5.872;2023-02-02T03:36:08;18.83;;;4.80;;
47349;SDS011;33088;51.982;5.872;2023-02-02T03:38:34;22.08;;;4.97;;
47349;SDS011;33088;51.982;5.872;2023-02-02T03:41:00;26.90;;;5.82;;
47349;SDS011;33088;51.982;5.872;2023-02-02T03:43:25;22.65;;;5.07;;
47349;SDS011;33088;51.982;5.872;2023-02-02T03:45:55;24.33;;;4.63;;
47349;SDS011;33088;51.982;5.872;2023-02-02T03:48:25;20.20;;;4.45;;
47349;SDS011;33088;51.982;5.872;2023-02-02T03:50:51;30.42;;;4.88;;
47349;SDS011;33088;51.982;5.872;2023-02-02T03:53:18;25.13;;;4.10;;
47349;SDS011;33088;51.982;5.872;2023-02-02T03:55:44;23.20;;;5.15;;
47349;SDS011;33088;51.982;5.872;2023-02-02T03:58:09;26.48;;;5.47;;
47349;SDS011;33088;51.982;5.872;2023-02-02T04:00:35;33.88;;;5.78;;
47349;SDS011;33088;51.982;5.872;2023-02-02T04:03:01;21.10;;;4.50;;
47349;SDS011;33088;51.982;5.872;2023-02-02T04:05:27;23.73;;;5.82;;
47349;SDS011;33088;51.982;5.872;2023-02-02T04:07:52;24.55;;;5.25;;
47349;SDS011;33088;51.982;5.872;2023-02-02T04:10:18;23.02;;;5.53;;
47349;SDS011;33088;51.982;5.872;2023-02-02T04:12:44;24.35;;;4.35;;
47349;SDS011;33088;51.982;5.872;2023-02-02T04:15:10;27.70;;;5.38;;
47349;SDS011;33088;51.982;5.872;2023-02-02T04:17:36;23.75;;;5.35;;
47349;SDS011;33088;51.982;5.872;2023-02-02T04:20:03;31.70;;;6.70;;
47349;SDS011;33088;51.982;5.872;2023-02-02T04:22:29;29.20;;;4.72;;
47349;SDS011;33088;51.982;5.872;2023-02-02T04:24:55;33.13;;;5.93;;
47349;SDS011;33088;51.982;5.872;2023-02-02T04:27:21;23.73;;;4.95;;
47349;SDS011;33088;51.982;5.872;2023-02-02T04:29:46;27.33;;;4.20;;
47349;SDS011;33088;51.982;5.872;2023-02-02T04:32:16;25.27;;;5.75;;
47349;SDS011;33088;51.982;5.872;2023-02-02T04:34:42;29.70;;;5.30;;
47349;SDS011;33088;51.982;5.872;2023-02-02T04:37:08;22.13;;;5.15;;
47349;SDS011;33088;51.982;5.872;2023-02-02T04:39:35;24.88;;;6.65;;
47349;SDS011;33088;51.982;5.872;2023-02-02T04:42:00;25.13;;;5.13;;
47349;SDS011;33088;51.982;5.872;2023-02-02T04:44:26;23.92;;;5.13;;
47349;SDS011;33088;51.982;5.872;2023-02-02T04:46:52;26.65;;;5.60;;
47349;SDS011;33088;51.982;5.872;2023-02-02T04:49:18;25.65;;;4.68;;
47349;SDS011;33088;51.982;5.872;2023-02-02T04:51:44;26.60;;;4.80;;
47349;SDS011;33088;51.982;5.872;2023-02-02T04:54:10;24.33;;;4.78;;
47349;SDS011;33088;51.982;5.872;2023-02-02T04:56:36;31.50;;;4.93;;
47349;SDS011;33088;51.982;5.872;2023-02-02T04:59:01;18.67;;;5.15;;
47349;SDS011;33088;51.982;5.872;2023-02-02T05:01:27;23.63;;;5.15;;
47349;SDS011;33088;51.982;5.872;2023-02-02T05:03:54;21.23;;;4.68;;
47349;SDS011;33088;51.982;5.872;2023-02-02T05:06:20;27.67;;;5.68;;
47349;SDS011;33088;51.982;5.872;2023-02-02T05:08:46;23.75;;;4.38;;
47349;SDS011;33088;51.982;5.872;2023-02-02T05:11:14;30.38;;;4.57;;
47349;SDS011;33088;51.982;5.872;2023-02-02T05:13:46;34.17;;;5.22;;
47349;SDS011;33088;51.982;5.872;2023-02-02T05:16:13;23.25;;;4.15;;
47349;SDS011;33088;51.982;5.872;2023-02-02T05:18:40;17.33;;;4.97;;
47349;SDS011;33088;51.982;5.872;2023-02-02T05:21:06;22.13;;;4.05;;
47349;SDS011;33088;51.982;5.872;2023-02-02T05:23:32;16.88;;;4.35;;
47349;SDS011;33088;51.982;5.872;2023-02-02T05:25:58;21.40;;;4.55;;
47349;SDS011;33088;51.982;5.872;2023-02-02T05:28:23;24.75;;;5.15;;
47349;SDS011;33088;51.982;5.872;2023-02-02T05:30:49;19.65;;;4.05;;
47349;SDS011;33088;51.982;5.872;2023-02-02T05:33:16;32.97;;;5.13;;
47349;SDS011;33088;51.982;5.872;2023-02-02T05:35:45;29.80;;;4.57;;
47349;SDS011;33088;51.982;5.872;2023-02-02T05:38:11;17.70;;;4.30;;
47349;SDS011;33088;51.982;5.872;2023-02-02T05:40:38;21.77;;;5.43;;
47349;SDS011;33088;51.982;5.872;2023-02-02T05:43:03;28.13;;;4.95;;
47349;SDS011;33088;51.982;5.872;2023-02-02T05:45:29;23.45;;;5.43;;
47349;SDS011;33088;51.982;5.872;2023-02-02T05:47:55;29.13;;;4.82;;
47349;SDS011;33088;51.982;5.872;2023-02-02T05:50:20;19.02;;;4.22;;
47349;SDS011;33088;51.982;5.872;2023-02-02T05:52:59;22.55;;;4.40;;
47349;SDS011;33088;51.982;5.872;2023-02-02T05:55:25;24.25;;;4.97;;
47349;SDS011;33088;51.982;5.872;2023-02-02T05:57:51;29.60;;;5.40;;
47349;SDS011;33088;51.982;5.872;2023-02-02T06:00:17;23.08;;;5.03;;
47349;SDS011;33088;51.982;5.872;2023-02-02T06:02:43;18.75;;;5.32;;
47349;SDS011;33088;51.982;5.872;2023-02-02T06:05:09;25.27;;;5.40;;
47349;SDS011;33088;51.982;5.872;2023-02-02T06:07:34;23.65;;;4.50;;
47349;SDS011;33088;51.982;5.872;2023-02-02T06:10:00;17.40;;;6.18;;
47349;SDS011;33088;51.982;5.872;2023-02-02T06:12:26;19.70;;;5.10;;
47349;SDS011;33088;51.982;5.872;2023-02-02T06:14:51;20.45;;;4.70;;
47349;SDS011;33088;51.982;5.872;2023-02-02T06:17:17;24.23;;;4.78;;
47349;SDS011;33088;51.982;5.872;2023-02-02T06:19:43;21.85;;;6.93;;
47349;SDS011;33088;51.982;5.872;2023-02-02T06:22:08;24.98;;;5.55;;
47349;SDS011;33088;51.982;5.872;2023-02-02T06:24:34;23.27;;;5.57;;
47349;SDS011;33088;51.982;5.872;2023-02-02T06:27:00;22.55;;;5.22;;
47349;SDS011;33088;51.982;5.872;2023-02-02T06:29:25;17.00;;;4.97;;
47349;SDS011;33088;51.982;5.872;2023-02-02T06:31:51;21.13;;;4.45;;
47349;SDS011;33088;51.982;5.872;2023-02-02T06:34:17;14.95;;;4.63;;
47349;SDS011;33088;51.982;5.872;2023-02-02T06:36:42;22.27;;;4.95;;
47349;SDS011;33088;51.982;5.872;2023-02-02T06:39:08;21.42;;;4.60;;
47349;SDS011;33088;51.982;5.872;2023-02-02T06:41:34;26.33;;;5.53;;
47349;SDS011;33088;51.982;5.872;2023-02-02T06:44:00;26.65;;;6.00;;
47349;SDS011;33088;51.982;5.872;2023-02-02T06:46:26;27.05;;;4.72;;
47349;SDS011;33088;51.982;5.872;2023-02-02T06:48:52;24.27;;;5.28;;
47349;SDS011;33088;51.982;5.872;2023-02-02T06:51:17;20.35;;;4.60;;
47349;SDS011;33088;51.982;5.872;2023-02-02T06:53:45;20.23;;;5.68;;
47349;SDS011;33088;51.982;5.872;2023-02-02T06:56:12;23.52;;;5.95;;
47349;SDS011;33088;51.982;5.872;2023-02-02T06:58:38;21.35;;;5.47;;
47349;SDS011;33088;51.982;5.872;2023-02-02T07:01:05;24.30;;;5.25;;
47349;SDS011;33088;51.982;5.872;2023-02-02T07:03:32;27.05;;;5.28;;
47349;SDS011;33088;51.982;5.872;2023-02-02T07:05:58;19.50;;;5.50;;
47349;SDS011;33088;51.982;5.872;2023-02-02T07:08:34;18.60;;;4.72;;
47349;SDS011;33088;51.982;5.872;2023-02-02T07:10:59;16.80;;;5.25;;
47349;SDS011;33088;51.982;5.872;2023-02-02T07:13:25;18.52;;;4.68;;
47349;SDS011;33088;51.982;5.872;2023-02-02T07:15:50;31.15;;;6.68;;
47349;SDS011;33088;51.982;5.872;2023-02-02T07:18:18;20.08;;;4.93;;
47349;SDS011;33088;51.982;5.872;2023-02-02T07:20:45;24.02;;;5.28;;
47349;SDS011;33088;51.982;5.872;2023-02-02T07:23:10;16.48;;;4.45;;
47349;SDS011;33088;51.982;5.872;2023-02-02T07:25:36;21.95;;;5.35;;
47349;SDS011;33088;51.982;5.872;2023-02-02T07:28:02;34.58;;;5.00;;
47349;SDS011;33088;51.982;5.872;2023-02-02T07:30:27;16.25;;;4.40;;
47349;SDS011;33088;51.982;5.872;2023-02-02T07:32:53;23.83;;;6.30;;
47349;SDS011;33088;51.982;5.872;2023-02-02T07:35:19;16.75;;;6.03;;
47349;SDS011;33088;51.982;5.872;2023-02-02T07:37:49;23.20;;;5.57;;
47349;SDS011;33088;51.982;5.872;2023-02-02T07:40:19;20.80;;;6.18;;
47349;SDS011;33088;51.982;5.872;2023-02-02T07:42:45;28.88;;;7.18;;
47349;SDS011;33088;51.982;5.872;2023-02-02T07:45:12;17.85;;;5.45;;
47349;SDS011;33088;51.982;5.872;2023-02-02T07:47:37;21.00;;;6.03;;
47349;SDS011;33088;51.982;5.872;2023-02-02T07:50:03;21.92;;;5.28;;
47349;SDS011;33088;51.982;5.872;2023-02-02T07:52:29;28.10;;;5.90;;
47349;SDS011;33088;51.982;5.872;2023-02-02T07:54:55;19.48;;;5.82;;
47349;SDS011;33088;51.982;5.872;2023-02-02T07:57:21;22.42;;;5.55;;
47349;SDS011;33088;51.982;5.872;2023-02-02T07:59:47;26.92;;;6.30;;
47349;SDS011;33088;51.982;5.872;2023-02-02T08:02:14;18.73;;;6.63;;
47349;SDS011;33088;51.982;5.872;2023-02-02T08:04:40;31.23;;;5.88;;
47349;SDS011;33088;51.982;5.872;2023-02-02T08:07:06;30.02;;;6.88;;
47349;SDS011;33088;51.982;5.872;2023-02-02T08:09:32;24.80;;;6.90;;
47349;SDS011;33088;51.982;5.872;2023-02-02T08:11:57;18.45;;;5.85;;
47349;SDS011;33088;51.982;5.872;2023-02-02T08:14:26;22.80;;;6.82;;
47349;SDS011;33088;51.982;5.872;2023-02-02T08:16:52;24.52;;;6.70;;
47349;SDS011;33088;51.982;5.872;2023-02-02T08:19:18;24.63;;;6.60;;
47349;SDS011;33088;51.982;5.872;2023-02-02T08:21:44;33.13;;;8.43;;
47349;SDS011;33088;51.982;5.872;2023-02-02T08:24:09;30.42;;;6.93;;
47349;SDS011;33088;51.982;5.872;2023-02-02T08:26:35;17.45;;;7.93;;
47349;SDS011;33088;51.982;5.872;2023-02-02T08:29:05;32.45;;;7.28;;
47349;SDS011;33088;51.982;5.872;2023-02-02T08:31:36;18.67;;;6.68;;
47349;SDS011;33088;51.982;5.872;2023-02-02T08:34:05;30.20;;;6.78;;
47349;SDS011;33088;51.982;5.872;2023-02-02T08:36:31;44.75;;;8.35;;
47349;SDS011;33088;51.982;5.872;2023-02-02T08:39:03;29.50;;;6.72;;
47349;SDS011;33088;51.982;5.872;2023-02-02T08:41:31;27.95;;;6.88;;
47349;SDS011;33088;51.982;5.872;2023-02-02T08:43:57;24.42;;;6.57;;
47349;SDS011;33088;51.982;5.872;2023-02-02T08:46:22;25.02;;;6.15;;
47349;SDS011;33088;51.982;5.872;2023-02-02T08:48:49;21.85;;;5.20;;
47349;SDS011;33088;51.982;5.872;2023-02-02T08:51:16;31.48;;;6.07;;
47349;SDS011;33088;51.982;5.872;2023-02-02T08:53:44;31.20;;;6.75;;
47349;SDS011;33088;51.982;5.872;2023-02-02T08:56:11;32.10;;;5.85;;
47349;SDS011;33088;51.982;5.872;2023-02-02T08:58:38;26.48;;;6.13;;
47349;SDS011;33088;51.982;5.872;2023-02-02T09:03:53;27.23;;;5.95;;
47349;SDS011;33088;51.982;5.872;2023-02-02T09:06:25;29.52;;;6.10;;
47349;SDS011;33088;51.982;5.872;2023-02-02T09:08:53;24.48;;;5.45;;
47349;SDS011;33088;51.982;5.872;2023-02-02T09:11:18;14.90;;;4.53;;
47349;SDS011;33088;51.982;5.872;2023-02-02T09:13:45;22.70;;;5.28;;
47349;SDS011;33088;51.982;5.872;2023-02-02T09:16:16;25.10;;;5.05;;
47349;SDS011;33088;51.982;5.872;2023-02-02T09:18:43;25.92;;;4.90;;
47349;SDS011;33088;51.982;5.872;2023-02-02T09:21:10;24.20;;;5.00;;
47349;SDS011;33088;51.982;5.872;2023-02-02T09:23:38;17.08;;;5.15;;
47349;SDS011;33088;51.982;5.872;2023-02-02T09:26:09;18.08;;;4.72;;
47349;SDS011;33088;51.982;5.872;2023-02-02T09:28:37;25.90;;;5.47;;
47349;SDS011;33088;51.982;5.872;2023-02-02T09:31:04;21.23;;;6.63;;
47349;SDS011;33088;51.982;5.872;2023-02-02T09:33:30;22.98;;;4.78;;
47349;SDS011;33088;51.982;5.872;2023-02-02T09:36:01;21.80;;;5.00;;
47349;SDS011;33088;51.982;5.872;2023-02-02T09:38:35;23.15;;;4.45;;
47349;SDS011;33088;51.982;5.872;2023-02-02T09:41:09;24.05;;;4.45;;
47349;SDS011;33088;51.982;5.872;2023-02-02T09:44:00;18.20;;;4.32;;
47349;SDS011;33088;51.982;5.872;2023-02-02T09:49:06;25.48;;;5.38;;
47349;SDS011;33088;51.982;5.872;2023-02-02T09:54:13;17.67;;;4.78;;
47349;SDS011;33088;51.982;5.872;2023-02-02T09:57:00;27.75;;;3.97;;
47349;SDS011;33088;51.982;5.872;2023-02-02T09:59:38;15.48;;;4.13;;
47349;SDS011;33088;51.982;5.872;2023-02-02T10:02:17;15.98;;;3.97;;
47349;SDS011;33088;51.982;5.872;2023-02-02T10:04:55;21.45;;;4.10;;
47349;SDS011;33088;51.982;5.872;2023-02-02T10:07:31;16.10;;;3.78;;
47349;SDS011;33088;51.982;5.872;2023-02-02T10:10:42;27.77;;;4.55;;
47349;SDS011;33088;51.982;5.872;2023-02-02T10:21:02;20.45;;;4.82;;
47349;SDS011;33088;51.982;5.872;2023-02-02T10:23:38;22.35;;;3.58;;
47349;SDS011;33088;51.982;5.872;2023-02-02T10:26:43;19.83;;;4.05;;
47349;SDS011;33088;51.982;5.872;2023-02-02T10:34:36;19.23;;;4.13;;
47349;SDS011;33088;51.982;5.872;2023-02-02T10:39:45;17.35;;;4.10;;
47349;SDS011;33088;51.982;5.872;2023-02-02T10:45:39;25.00;;;4.00;;
47349;SDS011;33088;51.982;5.872;2023-02-02T10:48:12;18.58;;;3.88;;
47349;SDS011;33088;51.982;5.872;2023-02-02T10:53:09;23.83;;;4.03;;
47349;SDS011;33088;51.982;5.872;2023-02-02T11:00:40;15.90;;;4.18;;
47349;SDS011;33088;51.982;5.872;2023-02-02T11:03:15;23.33;;;5.80;;
47349;SDS011;33088;51.982;5.872;2023-02-02T11:05:43;17.73;;;3.47;;
47349;SDS011;33088;51.982;5.872;2023-02-02T11:08:31;16.88;;;4.72;;
47349;SDS011;33088;51.982;5.872;2023-02-02T11:11:07;15.00;;;4.20;;
47349;SDS011;33088;51.982;5.872;2023-02-02T11:14:00;17.67;;;4.65;;
47349;SDS011;33088;51.982;5.872;2023-02-02T11:16:32;14.75;;;4.40;;
47349;SDS011;33088;51.982;5.872;2023-02-02T11:18:58;17.05;;;4.57;;
47349;SDS011;33088;51.982;5.872;2023-02-02T11:21:25;19.05;;;4.53;;
47349;SDS011;33088;51.982;5.872;2023-02-02T11:26:26;13.95;;;4.47;;
47349;SDS011;33088;51.982;5.872;2023-02-02T11:29:11;17.35;;;3.90;;
47349;SDS011;33088;51.982;5.872;2023-02-02T11:32:17;17.27;;;4.80;;
47349;SDS011;33088;51.982;5.872;2023-02-02T11:37:32;15.15;;;4.40;;
47349;SDS011;33088;51.982;5.872;2023-02-02T11:40:17;17.27;;;4.22;;
47349;SDS011;33088;51.982;5.872;2023-02-02T11:43:04;18.98;;;5.38;;
47349;SDS011;33088;51.982;5.872;2023-02-02T11:45:41;17.08;;;3.92;;
47349;SDS011;33088;51.982;5.872;2023-02-02T11:50:43;19.38;;;4.25;;
47349;SDS011;33088;51.982;5.872;2023-02-02T11:53:21;18.52;;;4.10;;
47349;SDS011;33088;51.982;5.872;2023-02-02T11:55:49;15.45;;;4.05;;
47349;SDS011;33088;51.982;5.872;2023-02-02T11:58:26;29.85;;;4.88;;
47349;SDS011;33088;51.982;5.872;2023-02-02T12:00:55;13.20;;;3.58;;
47349;SDS011;33088;51.982;5.872;2023-02-02T12:05:54;29.13;;;4.80;;
47349;SDS011;33088;51.982;5.872;2023-02-02T12:08:20;21.83;;;4.35;;
47349;SDS011;33088;51.982;5.872;2023-02-02T12:10:59;13.90;;;3.60;;
47349;SDS011;33088;51.982;5.872;2023-02-02T12:13:39;23.77;;;3.78;;
47349;SDS011;33088;51.982;5.872;2023-02-02T12:16:38;18.10;;;3.65;;
47349;SDS011;33088;51.982;5.872;2023-02-02T12:19:28;24.55;;;4.70;;
47349;SDS011;33088;51.982;5.872;2023-02-02T12:25:01;16.52;;;3.53;;
47349;SDS011;33088;51.982;5.872;2023-02-02T12:27:50;15.13;;;2.72;;
47349;SDS011;33088;51.982;5.872;2023-02-02T12:35:54;25.52;;;4.68;;
47349;SDS011;33088;51.982;5.872;2023-02-02T12:44:10;10.32;;;3.42;;
47349;SDS011;33088;51.982;5.872;2023-02-02T13:05:16;15.77;;;2.70;;
47349;SDS011;33088;51.982;5.872;2023-02-02T13:08:11;11.70;;;2.75;;
47349;SDS011;33088;51.982;5.872;2023-02-02T13:10:56;14.93;;;3.70;;
47349;SDS011;33088;51.982;5.872;2023-02-02T13:13:32;21.02;;;4.40;;
47349;SDS011;33088;51.982;5.872;2023-02-02T13:16:04;17.08;;;2.97;;
47349;SDS011;33088;51.982;5.872;2023-02-02T13:18:37;15.93;;;4.07;;
47349;SDS011;33088;51.982;5.872;2023-02-02T13:21:10;10.05;;;3.13;;
47349;SDS011;33088;51.982;5.872;2023-02-02T13:23:40;14.93;;;2.90;;
47349;SDS011;33088;51.982;5.872;2023-02-02T13:26:11;15.68;;;3.30;;
47349;SDS011;33088;51.982;5.872;2023-02-02T13:31:37;17.80;;;5.22;;
47349;SDS011;33088;51.982;5.872;2023-02-02T13:34:28;19.20;;;4.10;;
47349;SDS011;33088;51.982;5.872;2023-02-02T13:37:17;18.83;;;4.22;;
47349;SDS011;33088;51.982;5.872;2023-02-02T13:39:55;14.73;;;4.45;;
47349;SDS011;33088;51.982;5.872;2023-02-02T13:51:19;14.50;;;6.22;;
47349;SDS011;33088;51.982;5.872;2023-02-02T14:04:53;13.57;;;8.05;;
47349;SDS011;33088;51.982;5.872;2023-02-02T14:07:30;25.73;;;9.63;;
47349;SDS011;33088;51.982;5.872;2023-02-02T14:09:57;18.55;;;9.52;;
47349;SDS011;33088;51.982;5.872;2023-02-02T14:12:29;23.50;;;10.65;;
47349;SDS011;33088;51.982;5.872;2023-02-02T14:14:57;21.27;;;9.60;;
47349;SDS011;33088;51.982;5.872;2023-02-02T14:22:23;23.00;;;11.00;;
47349;SDS011;33088;51.982;5.872;2023-02-02T14:25:02;17.15;;;9.60;;
47349;SDS011;33088;51.982;5.872;2023-02-02T14:27:55;24.05;;;11.30;;
47349;SDS011;33088;51.982;5.872;2023-02-02T14:30:33;20.50;;;10.18;;
47349;SDS011;33088;51.982;5.872;2023-02-02T14:33:22;17.73;;;10.07;;
47349;SDS011;33088;51.982;5.872;2023-02-02T14:41:17;13.45;;;8.23;;
47349;SDS011;33088;51.982;5.872;2023-02-02T14:44:18;21.83;;;9.63;;
47349;SDS011;33088;51.982;5.872;2023-02-02T14:46:43;18.17;;;8.73;;
47349;SDS011;33088;51.982;5.872;2023-02-02T14:49:17;11.40;;;8.38;;
47349;SDS011;33088;51.982;5.872;2023-02-02T14:51:49;15.77;;;8.50;;
47349;SDS011;33088;51.982;5.872;2023-02-02T14:54:59;15.98;;;9.00;;
47349;SDS011;33088;51.982;5.872;2023-02-02T14:57:25;11.98;;;8.10;;
47349;SDS011;33088;51.982;5.872;2023-02-02T14:59:51;12.85;;;8.32;;
47349;SDS011;33088;51.982;5.872;2023-02-02T15:04:45;13.93;;;8.52;;
47349;SDS011;33088;51.982;5.872;2023-02-02T15:08:12;10.18;;;7.40;;
47349;SDS011;33088;51.982;5.872;2023-02-02T15:09:57;12.63;;;8.52;;
47349;SDS011;33088;51.982;5.872;2023-02-02T15:12:33;10.35;;;8.23;;
47349;SDS011;33088;51.982;5.872;2023-02-02T15:18:05;18.52;;;10.35;;
47349;SDS011;33088;51.982;5.872;2023-02-02T15:20:49;14.38;;;9.10;;
47349;SDS011;33088;51.982;5.872;2023-02-02T15:23:26;16.58;;;8.57;;
47349;SDS011;33088;51.982;5.872;2023-02-02T15:25:59;12.07;;;8.10;;
47349;SDS011;33088;51.982;5.872;2023-02-02T15:28:50;12.52;;;8.85;;
47349;SDS011;33088;51.982;5.872;2023-02-02T15:33:57;12.68;;;8.82;;
47349;SDS011;33088;51.982;5.872;2023-02-02T15:36:27;10.23;;;8.77;;
47349;SDS011;33088;51.982;5.872;2023-02-02T15:39:07;11.10;;;7.75;;
47349;SDS011;33088;51.982;5.872;2023-02-02T15:41:54;8.40;;;6.80;;
47349;SDS011;33088;51.982;5.872;2023-02-02T15:44:40;12.13;;;7.38;;
47349;SDS011;33088;51.982;5.872;2023-02-02T15:47:07;10.73;;;8.00;;
47349;SDS011;33088;51.982;5.872;2023-02-02T15:49:40;10.48;;;7.63;;
47349;SDS011;33088;51.982;5.872;2023-02-02T15:52:10;10.25;;;6.95;;
47349;SDS011;33088;51.982;5.872;2023-02-02T15:54:45;11.05;;;8.30;;
47349;SDS011;33088;51.982;5.872;2023-02-02T15:59:57;13.27;;;8.25;;
47349;SDS011;33088;51.982;5.872;2023-02-02T16:02:35;10.52;;;8.65;;
47349;SDS011;33088;51.982;5.872;2023-02-02T16:08:06;10.23;;;8.73;;
47349;SDS011;33088;51.982;5.872;2023-02-02T16:10:42;10.35;;;9.00;;
47349;SDS011;33088;51.982;5.872;2023-02-02T16:13:16;13.32;;;9.95;;
47349;SDS011;33088;51.982;5.872;2023-02-02T16:15:58;14.25;;;10.27;;
47349;SDS011;33088;51.982;5.872;2023-02-02T16:18:25;9.85;;;8.88;;
47349;SDS011;33088;51.982;5.872;2023-02-02T16:20:51;12.20;;;10.02;;
47349;SDS011;33088;51.982;5.872;2023-02-02T16:23:21;12.57;;;10.32;;
47349;SDS011;33088;51.982;5.872;2023-02-02T16:25:51;14.10;;;10.13;;
47349;SDS011;33088;51.982;5.872;2023-02-02T16:28:21;10.73;;;9.13;;
47349;SDS011;33088;51.982;5.872;2023-02-02T16:30:47;10.27;;;9.18;;
47349;SDS011;33088;51.982;5.872;2023-02-02T16:36:15;9.77;;;8.80;;
47349;SDS011;33088;51.982;5.872;2023-02-02T16:38:49;13.32;;;10.13;;
47349;SDS011;33088;51.982;5.872;2023-02-02T16:41:26;11.85;;;10.65;;
47349;SDS011;33088;51.982;5.872;2023-02-02T16:46:54;14.55;;;11.80;;
47349;SDS011;33088;51.982;5.872;2023-02-02T16:49:21;19.25;;;13.18;;
47349;SDS011;33088;51.982;5.872;2023-02-02T16:54:38;19.02;;;15.48;;
47349;SDS011;33088;51.982;5.872;2023-02-02T16:57:15;17.75;;;13.68;;
47349;SDS011;33088;51.982;5.872;2023-02-02T16:59:50;27.00;;;16.17;;
47349;SDS011;33088;51.982;5.872;2023-02-02T17:02:26;21.52;;;15.60;;
47349;SDS011;33088;51.982;5.872;2023-02-02T17:04:55;20.80;;;16.45;;
47349;SDS011;33088;51.982;5.872;2023-02-02T17:07:26;22.02;;;18.63;;
47349;SDS011;33088;51.982;5.872;2023-02-02T17:12:37;29.90;;;19.15;;
47349;SDS011;33088;51.982;5.872;2023-02-02T17:17:45;31.55;;;20.98;;
47349;SDS011;33088;51.982;5.872;2023-02-02T17:20:15;32.70;;;20.67;;
47349;SDS011;33088;51.982;5.872;2023-02-02T17:22:42;36.35;;;22.58;;
47349;SDS011;33088;51.982;5.872;2023-02-02T17:25:13;39.20;;;22.95;;
47349;SDS011;33088;51.982;5.872;2023-02-02T17:27:53;33.38;;;21.88;;
47349;SDS011;33088;51.982;5.872;2023-02-02T17:30:20;36.75;;;23.42;;
47349;SDS011;33088;51.982;5.872;2023-02-02T17:32:46;36.95;;;23.45;;
47349;SDS011;33088;51.982;5.872;2023-02-02T17:35:13;40.40;;;22.25;;
47349;SDS011;33088;51.982;5.872;2023-02-02T17:37:40;29.17;;;19.63;;